aviador You're here:

KBNO Decoded Metar

BURNS in OR, USA
Report Time2018-06-24 06:53:00
UTC Time2018-06-24 06:57:20
Flight Rules vfr VFR
WindCalm
Visibility9999 m
Phenomena:N/A
Clouds:N/A
Expected CloudBase > 2,400 ft AGL from Temp-Dew spread
CeilingNone
Temp10°C (ISA +3)
Dew Point04°C (67% RH)
AAT8.7°C
QNH1021 hPa
Density Alt4,383 ft
Elevation4,147 ft
Report Wrong Elevation
Raw Report
METAR KBNO 240653Z AUTO 00000KT 10SM CLR 10/04 A3014 RMK AO2 SLP182
T01000039=

Extra information for KBNO:More info

Metar Taf Metar & Taf Last 4 Metars F.Rules Stats Wind Profile Meteogram Temp Stats Airport Information Weather charts Add Link Nearby VenuesMetar ALERT Operation Metar Decoded Social comments

AIRNAV info for KBNO